createdAt,value
2023-03-01T00:00:13.009Z,0
2023-03-01T00:01:29.309Z,0
2023-03-01T00:02:45.594Z,0
2023-03-01T00:04:01.908Z,0
2023-03-01T00:05:18.171Z,0
2023-03-01T00:06:34.493Z,0
2023-03-01T00:07:50.763Z,0
2023-03-01T00:09:06.091Z,0
2023-03-01T00:10:22.366Z,0
2023-03-01T00:11:38.682Z,0
2023-03-01T00:12:54.973Z,0
2023-03-01T00:14:11.266Z,0
2023-03-01T00:15:27.541Z,0
2023-03-01T00:16:43.862Z,0
2023-03-01T00:18:00.146Z,0
2023-03-01T00:19:16.444Z,0
2023-03-01T00:20:32.742Z,0
2023-03-01T00:21:49.017Z,0
2023-03-01T00:23:05.316Z,0
2023-03-01T00:24:21.602Z,0
2023-03-01T00:25:36.928Z,0
2023-03-01T00:26:53.223Z,0
2023-03-01T00:28:09.538Z,0
2023-03-01T00:29:25.830Z,0
2023-03-01T00:30:42.125Z,0
2023-03-01T00:31:58.413Z,0
2023-03-01T00:33:13.723Z,0
2023-03-01T00:34:30.006Z,0
2023-03-01T00:35:46.324Z,0
2023-03-01T00:37:02.596Z,0
2023-03-01T00:38:18.915Z,0
2023-03-01T00:39:35.185Z,0
2023-03-01T00:40:51.496Z,0
2023-03-01T00:42:07.791Z,0
2023-03-01T00:43:24.087Z,0
2023-03-01T00:44:40.395Z,0
2023-03-01T00:45:56.666Z,0
2023-03-01T00:47:12.976Z,0
2023-03-01T00:48:29.268Z,0
2023-03-01T00:49:45.536Z,0
2023-03-01T00:51:00.870Z,0
2023-03-01T00:52:17.149Z,0
2023-03-01T00:53:33.470Z,0
2023-03-01T00:54:49.000Z,0
2023-03-01T00:56:06.043Z,0
2023-03-01T00:57:22.355Z,0
2023-03-01T00:58:38.644Z,0
2023-03-01T00:59:54.922Z,0
2023-03-01T01:01:11.217Z,0
2023-03-01T01:02:27.534Z,0
2023-03-01T01:03:43.814Z,0
2023-03-01T01:05:00.123Z,0
2023-03-01T01:06:16.400Z,0
2023-03-01T01:07:31.700Z,0
2023-03-01T01:08:48.000Z,0
2023-03-01T01:10:04.313Z,0
2023-03-01T01:11:20.582Z,0
2023-03-01T01:12:36.882Z,0
2023-03-01T01:13:53.000Z,0
2023-03-01T01:15:09.495Z,0
2023-03-01T01:16:25.766Z,0
2023-03-01T01:17:42.088Z,0
2023-03-01T01:18:58.377Z,0
2023-03-01T01:20:14.667Z,0
2023-03-01T01:21:30.967Z,0
2023-03-01T01:22:47.249Z,0
2023-03-01T01:24:02.562Z,0
2023-03-01T01:25:18.847Z,0
2023-03-01T01:26:35.135Z,0
2023-03-01T01:27:51.450Z,0
2023-03-01T01:29:07.728Z,0
2023-03-01T01:30:24.043Z,0
2023-03-01T01:31:40.335Z,0
2023-03-01T01:32:56.613Z,0
2023-03-01T01:34:12.925Z,0
2023-03-01T01:35:29.210Z,0
2023-03-01T01:36:45.494Z,0
2023-03-01T01:38:01.799Z,0
2023-03-01T01:39:18.122Z,0
2023-03-01T01:40:33.420Z,0
2023-03-01T01:41:49.697Z,0
2023-03-01T01:43:05.999Z,0
2023-03-01T01:44:22.299Z,0
2023-03-01T01:45:38.615Z,0
2023-03-01T01:46:54.870Z,0
2023-03-01T01:48:11.169Z,0
2023-03-01T01:49:27.476Z,0
2023-03-01T01:50:43.787Z,0
2023-03-01T01:52:00.069Z,0
2023-03-01T01:53:16.359Z,0
2023-03-01T01:54:32.642Z,0
2023-03-01T01:55:48.943Z,0
2023-03-01T01:57:04.273Z,0
2023-03-01T01:58:20.579Z,0
2023-03-01T01:59:36.837Z,0
2023-03-01T02:00:53.144Z,0
2023-03-01T02:02:09.424Z,0
2023-03-01T02:03:25.741Z,0
2023-03-01T02:04:42.022Z,0
2023-03-01T02:05:58.312Z,0
2023-03-01T02:07:14.626Z,0
2023-03-01T02:08:30.926Z,0
2023-03-01T02:09:47.205Z,0
2023-03-01T02:11:03.512Z,0
2023-03-01T02:12:19.803Z,0
2023-03-01T02:13:36.226Z,0
2023-03-01T02:14:52.522Z,0
2023-03-01T02:16:08.806Z,0
2023-03-01T02:17:25.085Z,0
2023-03-01T02:18:41.393Z,0
2023-03-01T02:19:57.681Z,0
2023-03-01T02:21:14.001Z,0
2023-03-01T02:22:30.273Z,0
2023-03-01T02:23:46.598Z,0
2023-03-01T02:25:02.860Z,0
2023-03-01T02:26:19.157Z,0
2023-03-01T02:27:35.452Z,0
2023-03-01T02:28:51.767Z,0
2023-03-01T02:30:07.085Z,0
2023-03-01T02:31:23.373Z,0
2023-03-01T02:32:39.644Z,0
2023-03-01T02:33:55.957Z,0
2023-03-01T02:35:12.246Z,0
2023-03-01T02:36:28.529Z,0
2023-03-01T02:37:44.000Z,0
2023-03-01T02:39:01.153Z,0
2023-03-01T02:40:17.431Z,0
2023-03-01T02:41:33.725Z,0
2023-03-01T02:42:50.010Z,0
2023-03-01T02:44:06.318Z,0
2023-03-01T02:45:22.619Z,0
2023-03-01T02:46:37.923Z,0
2023-03-01T02:47:54.206Z,0
2023-03-01T02:49:10.504Z,0
2023-03-01T02:50:26.798Z,0
2023-03-01T02:51:43.118Z,0
2023-03-01T02:52:59.379Z,0
2023-03-01T02:54:15.695Z,0
2023-03-01T02:55:31.977Z,0
2023-03-01T02:56:48.287Z,0
2023-03-01T02:58:04.566Z,0
2023-03-01T02:59:20.856Z,0
2023-03-01T03:00:37.147Z,0
2023-03-01T03:01:53.442Z,0
2023-03-01T03:03:08.772Z,0
2023-03-01T03:04:25.054Z,0
2023-03-01T03:05:41.344Z,0
2023-03-01T03:06:57.662Z,0
2023-03-01T03:08:13.937Z,0
2023-03-01T03:09:30.248Z,0
2023-03-01T03:10:46.561Z,0
2023-03-01T03:12:02.832Z,0
2023-03-01T03:13:19.146Z,0
2023-03-01T03:14:35.409Z,0
2023-03-01T03:15:51.730Z,0
2023-03-01T03:17:07.994Z,0
2023-03-01T03:18:24.311Z,0
2023-03-01T03:19:39.630Z,0
2023-03-01T03:20:55.905Z,0
2023-03-01T03:22:12.219Z,0
2023-03-01T03:23:28.509Z,0
2023-03-01T03:24:44.781Z,0
2023-03-01T03:26:01.076Z,0
2023-03-01T03:27:17.376Z,0
2023-03-01T03:28:33.706Z,0
2023-03-01T03:29:49.969Z,0
2023-03-01T03:31:06.268Z,0
2023-03-01T03:32:22.557Z,0
2023-03-01T03:33:38.849Z,0
2023-03-01T03:34:55.145Z,0
2023-03-01T03:36:10.458Z,0
2023-03-01T03:37:26.749Z,0
2023-03-01T03:38:43.075Z,0
2023-03-01T03:39:59.348Z,0
2023-03-01T03:41:15.660Z,0
2023-03-01T03:42:31.935Z,0
2023-03-01T03:43:48.229Z,0
2023-03-01T03:45:04.525Z,0
2023-03-01T03:46:20.828Z,0
2023-03-01T03:47:37.111Z,0
2023-03-01T03:48:53.406Z,0
2023-03-01T03:50:09.725Z,0
2023-03-01T03:51:26.001Z,0
2023-03-01T03:52:41.316Z,0
2023-03-01T03:53:57.601Z,0
2023-03-01T03:55:13.895Z,0
2023-03-01T03:56:30.188Z,0
2023-03-01T03:57:46.508Z,0
2023-03-01T03:59:02.808Z,0
2023-03-01T04:00:19.099Z,0
2023-03-01T04:01:35.389Z,0
2023-03-01T04:02:51.663Z,0
2023-03-01T04:04:07.970Z,0
2023-03-01T04:05:24.254Z,0
2023-03-01T04:06:40.571Z,0
2023-03-01T04:07:56.866Z,0
2023-03-01T04:09:12.175Z,0
2023-03-01T04:10:28.452Z,0
2023-03-01T04:11:44.775Z,0
2023-03-01T04:13:01.064Z,0
2023-03-01T04:14:17.336Z,0
2023-03-01T04:15:33.659Z,0
2023-03-01T04:16:49.924Z,0
2023-03-01T04:18:06.218Z,0
2023-03-01T04:19:22.536Z,0
2023-03-01T04:20:38.812Z,0
2023-03-01T04:23:11.407Z,0
2023-03-01T04:24:27.696Z,0
2023-03-01T04:25:43.029Z,0
2023-03-01T04:26:59.307Z,0
2023-03-01T04:28:15.605Z,0
2023-03-01T04:29:31.891Z,0
2023-03-01T04:30:48.191Z,0
2023-03-01T04:32:04.495Z,0
2023-03-01T04:33:20.781Z,0
2023-03-01T04:34:37.102Z,0
2023-03-01T04:35:53.392Z,0
2023-03-01T04:37:09.658Z,0
2023-03-01T04:38:25.978Z,0
2023-03-01T04:39:42.286Z,0
2023-03-01T04:40:58.550Z,0
2023-03-01T04:42:13.879Z,0
2023-03-01T04:43:30.153Z,0
2023-03-01T04:44:46.465Z,0
2023-03-01T04:46:02.767Z,0
2023-03-01T04:47:19.033Z,0
2023-03-01T04:48:34.379Z,0
2023-03-01T04:49:50.666Z,0
2023-03-01T04:51:06.941Z,0
2023-03-01T04:52:23.243Z,0
2023-03-01T04:53:39.558Z,0
2023-03-01T04:54:55.848Z,0
2023-03-01T04:56:12.150Z,0
2023-03-01T04:57:28.431Z,0
2023-03-01T04:58:44.000Z,0
2023-03-01T05:00:01.023Z,0
2023-03-01T05:01:17.324Z,0
2023-03-01T05:02:33.607Z,0
2023-03-01T05:03:49.915Z,0
2023-03-01T05:05:05.229Z,0
2023-03-01T05:06:21.527Z,0
2023-03-01T05:07:37.823Z,0
2023-03-01T05:08:54.123Z,0
2023-03-01T05:10:10.408Z,0
2023-03-01T05:11:26.702Z,0
2023-03-01T05:12:42.996Z,0
2023-03-01T05:13:59.269Z,0
2023-03-01T05:15:15.560Z,0
2023-03-01T05:16:31.882Z,0
2023-03-01T05:17:48.128Z,1
2023-03-01T05:19:04.425Z,0
2023-03-01T05:20:20.688Z,0
2023-03-01T05:21:35.983Z,1
2023-03-01T05:22:52.220Z,1
2023-03-01T05:24:08.526Z,0
2023-03-01T05:25:24.751Z,2
2023-03-01T05:26:40.986Z,1
2023-03-01T05:27:57.255Z,2
2023-03-01T05:29:13.522Z,1
2023-03-01T05:30:29.722Z,1
2023-03-01T05:31:45.984Z,6
2023-03-01T05:33:02.215Z,2
2023-03-01T05:34:18.470Z,2
2023-03-01T05:35:34.686Z,3
2023-03-01T05:36:50.954Z,5
2023-03-01T05:38:06.190Z,7
2023-03-01T05:39:22.428Z,9
2023-03-01T05:40:38.666Z,9
2023-03-01T05:41:54.929Z,10
2023-03-01T05:43:11.148Z,16
2023-03-01T05:44:27.429Z,22
2023-03-01T05:45:43.632Z,29
2023-03-01T05:46:59.883Z,37
2023-03-01T05:48:16.144Z,42
2023-03-01T05:49:32.380Z,50
2023-03-01T05:50:48.595Z,60
2023-03-01T05:52:04.849Z,74
2023-03-01T05:53:21.091Z,89
2023-03-01T05:54:36.332Z,98
2023-03-01T05:55:52.581Z,115
2023-03-01T05:57:08.820Z,134
2023-03-01T05:58:25.064Z,143
2023-03-01T05:59:41.315Z,161
2023-03-01T06:00:57.570Z,190
2023-03-01T06:02:13.782Z,202
2023-03-01T06:03:30.020Z,223
2023-03-01T06:04:46.284Z,244
2023-03-01T06:06:02.530Z,270
2023-03-01T06:07:18.766Z,294
2023-03-01T06:09:51.252Z,349
2023-03-01T06:11:06.507Z,383
2023-03-01T06:12:22.725Z,414
2023-03-01T06:13:38.992Z,446
2023-03-01T06:14:55.209Z,475
2023-03-01T06:16:11.473Z,510
2023-03-01T06:17:27.688Z,551
2023-03-01T06:18:43.957Z,581
2023-03-01T06:20:00.179Z,620
2023-03-01T06:21:16.431Z,657
2023-03-01T06:22:32.680Z,706
2023-03-01T06:23:48.906Z,747
2023-03-01T06:25:05.152Z,787
2023-03-01T06:26:21.378Z,843
2023-03-01T06:27:36.636Z,888
2023-03-01T06:28:52.900Z,928
2023-03-01T06:30:09.120Z,972
2023-03-01T06:31:25.359Z,1018
2023-03-01T06:32:41.623Z,1070
2023-03-01T06:33:57.864Z,1116
2023-03-01T06:35:14.105Z,1143
2023-03-01T06:36:30.325Z,1022
2023-03-01T06:37:46.600Z,1360
2023-03-01T06:40:19.073Z,1461
2023-03-01T06:41:35.294Z,1826
2023-03-01T06:42:51.556Z,1608
2023-03-01T06:44:06.787Z,1509
2023-03-01T06:45:23.025Z,1449
2023-03-01T06:46:39.266Z,1108
2023-03-01T06:47:55.532Z,1304
2023-03-01T06:49:11.758Z,2258
2023-03-01T06:50:27.985Z,1241
2023-03-01T06:51:44.250Z,2307
2023-03-01T06:53:00.491Z,1514
2023-03-01T06:54:16.712Z,2709
2023-03-01T06:55:32.954Z,8300
2023-03-01T06:56:49.216Z,3851
2023-03-01T06:58:05.463Z,3871
2023-03-01T06:59:21.673Z,3261
2023-03-01T07:00:36.965Z,2525
2023-03-01T07:03:09.413Z,2276
2023-03-01T07:04:25.663Z,2521
2023-03-01T07:05:41.924Z,2245
2023-03-01T07:06:58.138Z,2303
2023-03-01T07:08:14.402Z,1111
2023-03-01T07:09:30.641Z,2000
2023-03-01T07:10:46.868Z,4104
2023-03-01T07:12:03.103Z,3755
2023-03-01T07:13:19.363Z,8910
2023-03-01T07:14:35.603Z,9581
2023-03-01T07:15:51.842Z,13714
2023-03-01T07:17:07.100Z,16742
2023-03-01T07:18:23.315Z,11360
2023-03-01T07:19:39.562Z,16301
2023-03-01T07:20:55.805Z,14962
2023-03-01T07:22:12.060Z,16520
2023-03-01T07:23:28.311Z,14944
2023-03-01T07:24:44.546Z,12938
2023-03-01T07:26:00.785Z,21563
2023-03-01T07:27:17.025Z,16886
2023-03-01T07:28:33.268Z,14216
2023-03-01T07:29:49.483Z,19999
2023-03-01T07:31:05.760Z,16545
2023-03-01T07:32:21.967Z,16244
2023-03-01T07:33:37.246Z,19597
2023-03-01T07:34:53.464Z,15453
2023-03-01T07:36:09.719Z,22069
2023-03-01T07:37:25.937Z,20556
2023-03-01T07:38:42.208Z,25124
2023-03-01T07:39:58.430Z,23948
2023-03-01T07:41:14.665Z,20886
2023-03-01T07:42:30.896Z,20243
2023-03-01T07:43:47.167Z,24783
2023-03-01T07:45:03.382Z,21942
2023-03-01T07:46:19.639Z,23569
2023-03-01T07:47:35.862Z,26897
2023-03-01T07:48:52.119Z,17326
2023-03-01T07:50:07.383Z,24147
2023-03-01T07:51:23.595Z,20625
2023-03-01T07:52:39.864Z,75602
2023-03-01T07:53:56.100Z,76029
2023-03-01T07:55:12.309Z,77064
2023-03-01T07:56:28.575Z,74414
2023-03-01T07:57:44.801Z,21408
2023-03-01T07:59:01.031Z,76196
2023-03-01T08:00:17.309Z,74733
2023-03-01T08:01:33.516Z,75394
2023-03-01T08:02:49.755Z,74501
2023-03-01T08:04:06.021Z,75709
2023-03-01T08:05:22.227Z,75829
2023-03-01T08:06:37.504Z,74058
2023-03-01T08:07:53.751Z,19209
2023-03-01T08:09:09.972Z,76096
2023-03-01T08:10:26.238Z,74637
2023-03-01T08:11:42.473Z,78481
2023-03-01T08:12:58.681Z,76642
2023-03-01T08:14:14.960Z,75187
2023-03-01T08:15:31.183Z,79519
2023-03-01T08:16:47.432Z,79688
2023-03-01T08:18:03.641Z,76727
2023-03-01T08:19:19.894Z,74237
2023-03-01T08:20:36.124Z,74195
2023-03-01T08:21:52.366Z,78748
2023-03-01T08:23:07.632Z,77962
2023-03-01T08:24:23.868Z,78157
2023-03-01T08:25:40.103Z,76041
2023-03-01T08:26:56.347Z,72827
2023-03-01T08:28:12.596Z,76619
2023-03-01T08:29:28.820Z,81829
2023-03-01T08:30:45.067Z,80693
2023-03-01T08:32:01.000Z,76608
2023-03-01T08:33:17.551Z,78359
2023-03-01T08:34:33.779Z,79098
2023-03-01T08:35:50.012Z,78539
2023-03-01T08:37:06.254Z,77870
2023-03-01T08:38:22.504Z,79509
2023-03-01T08:39:37.755Z,82680
2023-03-01T08:40:53.998Z,80982
2023-03-01T08:42:10.233Z,79685
2023-03-01T08:43:26.471Z,78385
2023-03-01T08:44:42.721Z,81640
2023-03-01T08:45:58.955Z,79085
2023-03-01T08:47:15.211Z,78752
2023-03-01T08:48:31.434Z,80758
2023-03-01T08:49:47.685Z,80770
2023-03-01T08:51:03.905Z,77400
2023-03-01T08:52:20.156Z,78722
2023-03-01T08:53:36.388Z,81166
2023-03-01T08:54:52.628Z,81739
2023-03-01T08:56:07.885Z,82315
2023-03-01T08:57:24.124Z,81768
2023-03-01T08:58:40.365Z,80592
2023-03-01T08:59:56.613Z,80374
2023-03-01T09:01:12.838Z,81642
2023-03-01T09:02:29.089Z,81113
2023-03-01T09:03:44.341Z,76946
2023-03-01T09:05:00.586Z,79722
2023-03-01T09:06:16.838Z,80201
2023-03-01T09:07:33.077Z,81367
2023-03-01T09:08:49.308Z,82039
2023-03-01T09:10:05.538Z,80694
2023-03-01T09:11:21.783Z,80913
2023-03-01T09:12:38.025Z,80782
2023-03-01T09:13:54.276Z,77016
2023-03-01T09:15:10.511Z,80544
2023-03-01T09:16:26.743Z,79426
2023-03-01T09:17:42.981Z,80574
2023-03-01T09:18:59.223Z,75400
2023-03-01T09:20:14.495Z,74852
2023-03-01T09:21:30.730Z,79976
2023-03-01T09:22:46.964Z,78196
2023-03-01T09:24:03.196Z,78183
2023-03-01T09:25:19.431Z,74720
2023-03-01T09:26:35.689Z,74987
2023-03-01T09:27:51.917Z,74737
2023-03-01T09:29:08.152Z,74943
2023-03-01T09:30:24.395Z,74983
2023-03-01T09:31:40.656Z,75145
2023-03-01T09:32:56.876Z,74510
2023-03-01T09:34:13.125Z,74620
2023-03-01T09:35:29.351Z,74770
2023-03-01T09:36:44.632Z,74640
2023-03-01T09:38:00.857Z,74618
2023-03-01T09:39:17.096Z,75093
2023-03-01T09:40:33.348Z,74960
2023-03-01T09:41:49.574Z,74626
2023-03-01T09:43:05.815Z,74595
2023-03-01T09:44:22.056Z,74697
2023-03-01T09:45:38.306Z,75001
2023-03-01T09:46:54.531Z,74926
2023-03-01T09:48:10.780Z,74849
2023-03-01T09:49:27.015Z,75680
2023-03-01T09:50:43.258Z,74762
2023-03-01T09:51:59.490Z,74199
2023-03-01T09:53:14.747Z,74622
2023-03-01T09:54:30.987Z,74934
2023-03-01T09:55:47.231Z,74863
2023-03-01T09:57:03.471Z,75276
2023-03-01T09:58:19.716Z,75200
2023-03-01T09:59:35.959Z,74905
2023-03-01T10:00:52.190Z,74804
2023-03-01T10:02:08.441Z,74806
2023-03-01T10:03:24.677Z,75003
2023-03-01T10:04:40.922Z,75408
2023-03-01T10:05:57.171Z,74936
2023-03-01T10:07:13.393Z,74802
2023-03-01T10:08:29.643Z,74985
2023-03-01T10:09:44.895Z,74981
2023-03-01T10:11:01.140Z,74948
2023-03-01T10:12:17.382Z,75154
2023-03-01T10:13:33.611Z,74744
2023-03-01T10:14:49.862Z,75081
2023-03-01T10:16:06.101Z,74750
2023-03-01T10:17:22.331Z,75273
2023-03-01T10:18:38.569Z,74846
2023-03-01T10:19:54.821Z,76064
2023-03-01T10:21:11.056Z,76035
2023-03-01T10:22:27.292Z,74942
2023-03-01T10:23:43.546Z,74709
2023-03-01T10:24:59.787Z,75116
2023-03-01T10:26:15.035Z,77866
2023-03-01T10:27:31.273Z,76292
2023-03-01T10:28:47.513Z,78206
2023-03-01T10:30:03.742Z,76404
2023-03-01T10:31:20.000Z,75182
2023-03-01T10:32:36.233Z,75130
2023-03-01T10:33:52.480Z,75276
2023-03-01T10:35:08.713Z,75073
2023-03-01T10:36:24.952Z,75058
2023-03-01T10:37:41.199Z,82435
2023-03-01T10:38:57.430Z,82808
2023-03-01T10:40:13.685Z,75816
2023-03-01T10:41:29.922Z,75211
2023-03-01T10:42:45.165Z,81487
2023-03-01T10:44:01.406Z,77516
2023-03-01T10:45:17.662Z,76200
2023-03-01T10:46:33.886Z,79128
2023-03-01T10:47:50.132Z,81194
2023-03-01T10:49:06.380Z,75845
2023-03-01T10:50:22.620Z,74652
2023-03-01T10:51:38.846Z,74518
2023-03-01T10:52:55.086Z,75399
2023-03-01T10:54:11.337Z,74873
2023-03-01T10:55:27.567Z,74725
2023-03-01T10:56:43.815Z,71050
2023-03-01T10:58:00.042Z,38953
2023-03-01T10:59:15.312Z,12957
2023-03-01T11:00:31.546Z,76160
2023-03-01T11:01:47.801Z,83920
2023-03-01T11:03:04.024Z,80285
2023-03-01T11:04:20.272Z,76447
2023-03-01T11:05:36.510Z,81390
2023-03-01T11:06:52.764Z,80559
2023-03-01T11:08:08.994Z,81254
2023-03-01T11:09:25.225Z,81285
2023-03-01T11:10:41.470Z,81492
2023-03-01T11:11:57.720Z,74476
2023-03-01T11:13:13.960Z,78348
2023-03-01T11:14:30.181Z,78406
2023-03-01T11:15:45.444Z,74062
2023-03-01T11:17:01.686Z,69366
2023-03-01T11:18:17.926Z,20485
2023-03-01T11:19:34.177Z,83771
2023-03-01T11:20:50.399Z,77676
2023-03-01T11:22:06.654Z,80566
2023-03-01T11:23:22.880Z,78684
2023-03-01T11:24:39.136Z,76079
2023-03-01T11:25:55.357Z,75470
2023-03-01T11:27:11.618Z,78262
2023-03-01T11:28:27.863Z,80491
2023-03-01T11:29:44.089Z,82368
2023-03-01T11:31:00.319Z,81591
2023-03-01T11:32:15.587Z,76423
2023-03-01T11:33:31.833Z,74720
2023-03-01T11:34:48.070Z,26896
2023-03-01T11:36:04.313Z,73904
2023-03-01T11:37:20.546Z,33926
2023-03-01T11:38:36.781Z,36363
2023-03-01T11:39:53.022Z,12420
2023-03-01T11:41:09.256Z,30224
2023-03-01T11:42:25.500Z,14706
2023-03-01T11:43:41.740Z,5606
2023-03-01T11:44:57.979Z,20201
2023-03-01T11:46:14.221Z,74287
2023-03-01T11:47:30.462Z,30112
2023-03-01T11:48:45.709Z,77892
2023-03-01T11:50:01.964Z,78006
2023-03-01T11:51:18.209Z,81459
2023-03-01T11:52:34.440Z,76646
2023-03-01T11:53:50.682Z,73719
2023-03-01T11:55:06.918Z,74239
2023-03-01T11:56:23.175Z,80379
2023-03-01T11:57:39.407Z,76375
2023-03-01T11:58:55.635Z,72614
2023-03-01T12:00:11.872Z,40838
2023-03-01T12:01:28.127Z,23462
2023-03-01T12:02:44.365Z,78891
2023-03-01T12:04:00.613Z,69935
2023-03-01T12:05:15.848Z,17827
2023-03-01T12:06:32.100Z,76944
2023-03-01T12:07:48.337Z,70629
2023-03-01T12:09:04.567Z,33966
2023-03-01T12:10:20.813Z,22064
2023-03-01T12:11:37.045Z,70881
2023-03-01T12:12:53.293Z,24418
2023-03-01T12:14:09.551Z,26945
2023-03-01T12:15:25.767Z,78520
2023-03-01T12:16:42.020Z,78331
2023-03-01T12:17:58.253Z,78523
2023-03-01T12:19:14.494Z,80798
2023-03-01T12:20:30.742Z,80567
2023-03-01T12:21:45.998Z,71893
2023-03-01T12:23:02.231Z,38541
2023-03-01T12:24:18.472Z,17295
2023-03-01T12:25:34.697Z,67393
2023-03-01T12:26:50.952Z,20384
2023-03-01T12:28:07.194Z,2842
2023-03-01T12:29:23.430Z,27502
2023-03-01T12:30:39.667Z,8051
2023-03-01T12:31:55.913Z,75319
2023-03-01T12:33:12.145Z,76717
2023-03-01T12:34:28.397Z,77184
2023-03-01T12:35:44.616Z,77005
2023-03-01T12:37:00.870Z,77944
2023-03-01T12:38:16.123Z,77740
2023-03-01T12:39:32.377Z,77998
2023-03-01T12:40:48.594Z,71643
2023-03-01T12:42:04.832Z,30476
2023-03-01T12:43:21.094Z,8052
2023-03-01T12:44:37.325Z,4055
2023-03-01T12:45:53.551Z,17247
2023-03-01T12:47:09.808Z,21309
2023-03-01T12:48:26.034Z,14236
2023-03-01T12:49:42.282Z,73429
2023-03-01T12:50:58.517Z,81053
2023-03-01T12:52:14.760Z,81169
2023-03-01T12:53:30.995Z,79460
2023-03-01T12:54:46.259Z,76061
2023-03-01T12:56:02.485Z,78601
2023-03-01T12:57:18.731Z,73746
2023-03-01T12:58:34.967Z,72121
2023-03-01T12:59:51.221Z,15135
2023-03-01T13:01:07.458Z,81327
2023-03-01T13:02:23.706Z,79815
2023-03-01T13:03:39.933Z,73652
2023-03-01T13:04:56.182Z,72054
2023-03-01T13:06:12.429Z,35587
2023-03-01T13:07:28.665Z,19139
2023-03-01T13:08:44.891Z,74332
2023-03-01T13:10:01.140Z,77871
2023-03-01T13:11:16.388Z,79046
2023-03-01T13:12:32.632Z,78692
2023-03-01T13:13:48.870Z,78353
2023-03-01T13:15:05.103Z,75850
2023-03-01T13:16:21.360Z,78011
2023-03-01T13:17:37.587Z,70458
2023-03-01T13:18:52.847Z,24267
2023-03-01T13:20:09.091Z,5387
2023-03-01T13:21:25.331Z,4930
2023-03-01T13:22:41.561Z,4865
2023-03-01T13:23:57.809Z,4787
2023-03-01T13:25:14.053Z,4732
2023-03-01T13:26:30.304Z,4725
2023-03-01T13:27:46.528Z,4714
2023-03-01T13:29:02.766Z,4705
2023-03-01T13:30:18.996Z,4696
2023-03-01T13:31:35.238Z,4674
2023-03-01T13:32:51.487Z,4597
2023-03-01T13:34:07.729Z,4614
2023-03-01T13:35:23.963Z,4583
2023-03-01T13:36:39.226Z,4540
2023-03-01T13:37:55.461Z,2520
2023-03-01T13:39:11.689Z,3297
2023-03-01T13:40:27.939Z,16672
2023-03-01T13:41:44.180Z,74606
2023-03-01T13:43:00.427Z,75576
2023-03-01T13:44:16.660Z,76082
2023-03-01T13:45:32.897Z,76064
2023-03-01T13:46:49.152Z,74826
2023-03-01T13:48:05.386Z,72207
2023-03-01T13:49:21.609Z,31852
2023-03-01T13:50:37.857Z,71335
2023-03-01T13:51:54.085Z,29779
2023-03-01T13:53:09.349Z,30635
2023-03-01T13:54:25.596Z,25025
2023-03-01T13:55:41.824Z,4692
2023-03-01T13:56:58.078Z,4891
2023-03-01T13:58:14.316Z,32614
2023-03-01T13:59:30.558Z,32208
2023-03-01T14:00:46.798Z,70740
2023-03-01T14:02:03.029Z,36440
2023-03-01T14:03:19.262Z,22235
2023-03-01T14:04:35.514Z,3158
2023-03-01T14:05:51.738Z,10517
2023-03-01T14:07:08.001Z,37864
2023-03-01T14:08:24.223Z,24334
2023-03-01T14:09:39.487Z,24281
2023-03-01T14:10:55.727Z,28541
2023-03-01T14:12:11.953Z,31787
2023-03-01T14:13:28.219Z,33408
2023-03-01T14:14:44.445Z,25161
2023-03-01T14:16:00.686Z,29326
2023-03-01T14:17:16.927Z,19459
2023-03-01T14:18:33.176Z,9182
2023-03-01T14:19:49.410Z,3641
2023-03-01T14:21:05.638Z,2032
2023-03-01T14:22:21.874Z,19004
2023-03-01T14:23:38.112Z,11661
2023-03-01T14:24:54.368Z,3741
2023-03-01T14:26:09.615Z,3400
2023-03-01T14:27:25.868Z,3308
2023-03-01T14:28:42.086Z,3247
2023-03-01T14:29:58.327Z,3188
2023-03-01T14:31:14.572Z,3139
2023-03-01T14:32:30.827Z,3084
2023-03-01T14:33:47.044Z,3029
2023-03-01T14:35:03.300Z,2989
2023-03-01T14:36:19.540Z,2952
2023-03-01T14:37:35.778Z,2912
2023-03-01T14:38:52.003Z,2877
2023-03-01T14:40:08.269Z,2845
2023-03-01T14:41:24.505Z,2811
2023-03-01T14:42:39.766Z,2779
2023-03-01T14:43:55.996Z,2751
2023-03-01T14:45:12.234Z,2732
2023-03-01T14:46:28.480Z,2715
2023-03-01T14:47:44.711Z,2706
2023-03-01T14:49:00.962Z,2690
2023-03-01T14:50:17.195Z,2669
2023-03-01T14:51:33.427Z,2653
2023-03-01T14:52:49.659Z,936
2023-03-01T14:54:05.917Z,3036
2023-03-01T14:55:22.141Z,28132
2023-03-01T14:56:38.399Z,25338
2023-03-01T14:57:54.634Z,19573
2023-03-01T14:59:09.902Z,15484
2023-03-01T15:00:26.142Z,10168
2023-03-01T15:01:42.361Z,4535
2023-03-01T15:02:58.596Z,2363
2023-03-01T15:04:14.833Z,2284
2023-03-01T15:05:31.092Z,2247
2023-03-01T15:06:47.320Z,2217
2023-03-01T15:08:03.568Z,2192
2023-03-01T15:09:19.802Z,2165
2023-03-01T15:10:36.033Z,2143
2023-03-01T15:11:52.292Z,2121
2023-03-01T15:13:08.537Z,2095
2023-03-01T15:14:24.769Z,2067
2023-03-01T15:15:40.034Z,2034
2023-03-01T15:16:56.251Z,2000
2023-03-01T15:18:12.507Z,1971
2023-03-01T15:19:28.753Z,1943
2023-03-01T15:20:44.988Z,1920
2023-03-01T15:22:01.212Z,1900
2023-03-01T15:23:17.475Z,1886
2023-03-01T15:24:33.696Z,1873
2023-03-01T15:25:49.958Z,1853
2023-03-01T15:27:06.177Z,1830
2023-03-01T15:28:22.419Z,1806
2023-03-01T15:29:38.674Z,1782
2023-03-01T15:30:54.891Z,1760
2023-03-01T15:32:10.172Z,1741
2023-03-01T15:33:26.399Z,1721
2023-03-01T15:34:42.627Z,1697
2023-03-01T15:35:58.877Z,1676
2023-03-01T15:37:15.124Z,1651
2023-03-01T15:38:31.375Z,1626
2023-03-01T15:39:47.598Z,1608
2023-03-01T15:41:03.826Z,1592
2023-03-01T15:42:20.078Z,1570
2023-03-01T15:43:36.307Z,672
2023-03-01T15:44:52.551Z,820
2023-03-01T15:46:08.786Z,2484
2023-03-01T15:47:25.028Z,4298
2023-03-01T15:48:40.304Z,7618
2023-03-01T15:49:56.537Z,6370
2023-03-01T15:51:12.784Z,4473
2023-03-01T15:52:29.033Z,4846
2023-03-01T15:53:45.274Z,3138
2023-03-01T15:55:01.490Z,2975
2023-03-01T15:56:17.743Z,6063
2023-03-01T15:57:33.980Z,4373
2023-03-01T15:58:50.201Z,2880
2023-03-01T16:00:06.470Z,4655
2023-03-01T16:01:22.703Z,3942
2023-03-01T16:02:38.928Z,2834
2023-03-01T16:03:55.192Z,1970
2023-03-01T16:05:10.437Z,2280
2023-03-01T16:06:26.661Z,1829
2023-03-01T16:07:42.907Z,1493
2023-03-01T16:08:59.151Z,1127
2023-03-01T16:10:15.398Z,965
2023-03-01T16:11:31.642Z,925
2023-03-01T16:12:47.859Z,894
2023-03-01T16:14:04.126Z,864
2023-03-01T16:15:20.353Z,837
2023-03-01T16:16:36.591Z,804
2023-03-01T16:17:52.821Z,774
2023-03-01T16:19:09.058Z,748
2023-03-01T16:20:25.297Z,719
2023-03-01T16:21:40.579Z,688
2023-03-01T16:22:56.804Z,666
2023-03-01T16:24:13.057Z,635
2023-03-01T16:25:29.298Z,607
2023-03-01T16:26:45.535Z,583
2023-03-01T16:28:01.755Z,546
2023-03-01T16:29:18.025Z,512
2023-03-01T16:30:34.258Z,491
2023-03-01T16:31:50.476Z,460
2023-03-01T16:33:06.737Z,434
2023-03-01T16:34:22.955Z,408
2023-03-01T16:35:39.221Z,379
2023-03-01T16:36:55.454Z,352
2023-03-01T16:38:10.713Z,327
2023-03-01T16:39:26.936Z,303
2023-03-01T16:40:43.201Z,275
2023-03-01T16:41:59.440Z,254
2023-03-01T16:43:15.655Z,232
2023-03-01T16:44:31.897Z,210
2023-03-01T16:45:48.139Z,189
2023-03-01T16:47:04.376Z,172
2023-03-01T16:48:20.647Z,155
2023-03-01T16:49:36.879Z,136
2023-03-01T16:50:53.123Z,117
2023-03-01T16:52:09.357Z,107
2023-03-01T16:53:25.593Z,95
2023-03-01T16:54:41.955Z,79
2023-03-01T16:55:58.193Z,69
2023-03-01T16:57:14.441Z,59
2023-03-01T16:58:30.677Z,53
2023-03-01T16:59:46.918Z,42
2023-03-01T17:01:03.168Z,35
2023-03-01T17:02:19.398Z,27
2023-03-01T17:03:35.631Z,23
2023-03-01T17:04:51.872Z,27
2023-03-01T17:06:08.133Z,16
2023-03-01T17:07:24.359Z,14
2023-03-01T17:08:40.610Z,12
2023-03-01T17:09:56.844Z,7
2023-03-01T17:11:12.088Z,2
2023-03-01T17:12:28.339Z,9
2023-03-01T17:13:44.574Z,4
2023-03-01T17:15:00.813Z,2
2023-03-01T17:16:17.059Z,3
2023-03-01T17:17:33.280Z,1
2023-03-01T17:18:49.580Z,0
2023-03-01T17:20:05.814Z,1
2023-03-01T17:21:22.074Z,1
2023-03-01T17:22:38.304Z,1
2023-03-01T17:23:54.595Z,0
2023-03-01T17:25:10.897Z,0